Flugplatz Möckmühl-Korb (UL)

Hier findest Du alle Informationen zum Flugplatz Möckmühl-Korb (UL).

Informationen für Piloten zum Flugplatz Möckmühl-Korb

Hier findest Du alle relevanten Informationen, die Du als Pilot benötigst, um Möckmühl-Korb anzufliegen.

Flugplatz: Möckmühl-Korb ICAO-Code: UL Flugplatz
Frequenz Turm: 129.975 Mhz GAFOR Gebiet: -
Frequenz Ground: 129.975 Mhz Mogas: nein
Platzrunde: N 2112 ft Landegebühr: -
Platzhöhe: Sunrise: 06:53 Uhr UTC
Pisten: 08/26 - 540 m x 30 m, GRAS Sunset: 15:28 Uhr UTC

Mitglieder, die in Möckmühl-Korb fliegen

Flugwetter am Flugplatz Möckmühl-Korb

Die METAR Information stammen aus EDFM (65.59 km entfernt).

METAR Code:
2020/11/20 14:50
EDFM 201450Z 36003KT 9999 FEW020 BKN063 06/03 Q1035

Flugschulen am Flugplatz Möckmühl-Korb

Am Flugplatz Möckmühl-Korb gibt es leider keine Flugschule.

Benachbarte Flugplätze und Flugschulen

Es gibt 20 weitere Flugplätze in einem Umkreis von 50 km um den Flugplatz Möckmühl-Korb.

Jetzt anmelden

Passwort vergessen

Umfrage Archiv

Wie viele Flugstunden seid Ihr in Eurer Pilotenausbildung geflogen?

31 - 40 Stunden
46.6 %
41 - 50 Stunden
24.1 %
exakt 30 Stunden
13.8 %
über 60 Stunden
10.3 %
51 - 60 Stunden
5.2 %
Stimmen: 58 | Diskussion
Anzeige: Roland Aircraft
Statistik Alle Mitglieder

Aktuell sind 29 Besucher online.

Anzeige: VFR Sprechfunk Simulator


Anzeige: Pocket FMS